Wright Patterson Air Force Base
KFFO : now visible

Airfield :











YOU CAN JOIN US ON...

 
LOGIN :

Register | Disclaimer

   EN    FR    IT 

 









Legend :    VFR   Marginal VFR   IFR   Intensive IFR   Very Intensive IFR
Visi :
Ceiling :
>= 8 km
>= 3000ft
5 to 8 km
1000 to 3000 ft
1500m to 5 km
500 to 1000 ft
800 to 1500m
200 to 500 ft
< 800m
< 200 ft
Symbols :   Thunderstorms  Fog  Heavy snow  Heavy precipitations  Wind > 20 kt






- Airport Elevation : 823 ft


KFFO - Wright Patterson Air Force Base

CURRENT METAR :
  • 161256Z 05004KT 4SM BR OVC008 00/M02 A3009 RMK AO2A SLP201 T10051019

EXPIRED METARs :
  • 161156Z 04006KT 6SM BR OVC007 00/M02 A3008 RMK AO2A SLP198 60002 70035 4/004 T10041017 11003 21008 53011
  • 161056Z 03007KT 6SM BR OVC007 00/M02 A3007 RMK AO2A SLP194 T10041017

TAF TAF KFFO
Valid from the 16 at 11:00 until the 17 at 17:00 UTC


161100Z 1611/1717 04009KT 9000 BR BKN007 OVC020 620076 510703 QNH3003INS
BECMG 1614/1615 04009KT 8000 BR OVC010 620109 510703 QNH3003INS
BECMG 1619/1620 03012KT 4800 -RASN OVC010 620109 510451 QNH2998INS
TEMPO 1621/1701 0800 SN
BECMG 1700/1701 02012KT 2400 -RASN OVC008 620089 510451 QNH2988INS
BECMG 1705/1706 02012KT 3200 -SN OVC006 620069 510301 QNH2981INS
BECMG 1714/1715 36010G15KT 9999 NSW SCT060 BKN080 620802 510152 QNH2990INS TX00/1615Z TNM01/1611Z



MET'MAP, your aeronautical weather chart ! - Copyright ORBIFLY December 2007 - Disclaimer

ORBIFLY MET'MAP TEAM :

Programming & Development : Alexandra Zaïnal
Concept & original design : Baudouin d'Aumeries
Assistance for programming : Marc-Olivier Méhu
Technical & hardware support : Manuel Goepfert

Contact : metmap@orbifly.com




SOURCES & CREDITS :

   NOAA       Earth
Advisory